sensor_id;sensor_type;location;lat;lon;timestamp;P1;durP1;ratioP1;P2;durP2;ratioP2
49948;SDS011;35840;45.982;8.890;2023-05-02T00:00:53;4.13;;;2.42;;
49948;SDS011;35840;45.982;8.890;2023-05-02T00:03:20;3.08;;;2.30;;
49948;SDS011;35840;45.982;8.890;2023-05-02T00:05:47;2.88;;;2.10;;
49948;SDS011;35840;45.982;8.890;2023-05-02T00:08:13;2.83;;;2.10;;
49948;SDS011;35840;45.982;8.890;2023-05-02T00:10:41;2.53;;;2.00;;
49948;SDS011;35840;45.982;8.890;2023-05-02T00:13:08;2.53;;;2.03;;
49948;SDS011;35840;45.982;8.890;2023-05-02T00:15:35;2.33;;;1.98;;
49948;SDS011;35840;45.982;8.890;2023-05-02T00:18:01;2.28;;;2.05;;
49948;SDS011;35840;45.982;8.890;2023-05-02T00:20:28;3.10;;;2.63;;
49948;SDS011;35840;45.982;8.890;2023-05-02T00:22:55;2.10;;;1.90;;
49948;SDS011;35840;45.982;8.890;2023-05-02T00:25:24;5.97;;;2.17;;
49948;SDS011;35840;45.982;8.890;2023-05-02T00:27:51;5.43;;;2.78;;
49948;SDS011;35840;45.982;8.890;2023-05-02T00:30:18;4.68;;;2.47;;
49948;SDS011;35840;45.982;8.890;2023-05-02T00:32:46;1.88;;;1.65;;
49948;SDS011;35840;45.982;8.890;2023-05-02T00:35:13;2.17;;;1.88;;
49948;SDS011;35840;45.982;8.890;2023-05-02T00:37:40;7.40;;;2.47;;
49948;SDS011;35840;45.982;8.890;2023-05-02T00:40:06;4.57;;;2.70;;
49948;SDS011;35840;45.982;8.890;2023-05-02T00:42:34;2.22;;;1.58;;
49948;SDS011;35840;45.982;8.890;2023-05-02T00:45:04;4.55;;;1.80;;
49948;SDS011;35840;45.982;8.890;2023-05-02T00:47:32;1.77;;;1.67;;
49948;SDS011;35840;45.982;8.890;2023-05-02T00:49:59;5.28;;;2.47;;
49948;SDS011;35840;45.982;8.890;2023-05-02T00:52:27;3.53;;;1.90;;
49948;SDS011;35840;45.982;8.890;2023-05-02T00:54:54;2.80;;;2.13;;
49948;SDS011;35840;45.982;8.890;2023-05-02T00:57:21;3.17;;;1.83;;
49948;SDS011;35840;45.982;8.890;2023-05-02T00:59:48;7.78;;;2.35;;
49948;SDS011;35840;45.982;8.890;2023-05-02T01:10:00;5.50;;;2.22;;
49948;SDS011;35840;45.982;8.890;2023-05-02T01:12:42;1.83;;;1.73;;
49948;SDS011;35840;45.982;8.890;2023-05-02T01:15:18;2.47;;;1.83;;
49948;SDS011;35840;45.982;8.890;2023-05-02T01:17:46;2.75;;;2.33;;
49948;SDS011;35840;45.982;8.890;2023-05-02T01:20:17;4.00;;;2.05;;
49948;SDS011;35840;45.982;8.890;2023-05-02T01:22:47;2.08;;;1.88;;
49948;SDS011;35840;45.982;8.890;2023-05-02T01:28:17;2.40;;;2.20;;
49948;SDS011;35840;45.982;8.890;2023-05-02T01:30:54;2.20;;;2.03;;
49948;SDS011;35840;45.982;8.890;2023-05-02T01:33:23;2.83;;;1.80;;
49948;SDS011;35840;45.982;8.890;2023-05-02T01:35:52;3.75;;;1.92;;
49948;SDS011;35840;45.982;8.890;2023-05-02T01:38:20;2.83;;;1.92;;
49948;SDS011;35840;45.982;8.890;2023-05-02T01:40:49;6.35;;;2.42;;
49948;SDS011;35840;45.982;8.890;2023-05-02T01:43:17;2.30;;;2.10;;
49948;SDS011;35840;45.982;8.890;2023-05-02T01:45:47;2.22;;;1.90;;
49948;SDS011;35840;45.982;8.890;2023-05-02T01:48:16;2.13;;;1.92;;
49948;SDS011;35840;45.982;8.890;2023-05-02T01:50:45;2.47;;;2.10;;
49948;SDS011;35840;45.982;8.890;2023-05-02T01:53:13;3.15;;;2.20;;
49948;SDS011;35840;45.982;8.890;2023-05-02T01:55:41;6.57;;;2.63;;
49948;SDS011;35840;45.982;8.890;2023-05-02T01:58:11;2.25;;;2.03;;
49948;SDS011;35840;45.982;8.890;2023-05-02T02:00:41;4.40;;;1.67;;
49948;SDS011;35840;45.982;8.890;2023-05-02T02:03:11;3.00;;;1.52;;
49948;SDS011;35840;45.982;8.890;2023-05-02T02:05:39;4.07;;;1.70;;
49948;SDS011;35840;45.982;8.890;2023-05-02T02:08:07;3.42;;;2.13;;
49948;SDS011;35840;45.982;8.890;2023-05-02T02:10:35;5.30;;;1.90;;
49948;SDS011;35840;45.982;8.890;2023-05-02T02:13:18;2.90;;;1.67;;
49948;SDS011;35840;45.982;8.890;2023-05-02T02:15:56;4.00;;;1.73;;
49948;SDS011;35840;45.982;8.890;2023-05-02T02:18:27;2.78;;;1.60;;
49948;SDS011;35840;45.982;8.890;2023-05-02T02:20:56;5.72;;;2.05;;
49948;SDS011;35840;45.982;8.890;2023-05-02T02:23:25;3.20;;;1.90;;
49948;SDS011;35840;45.982;8.890;2023-05-02T02:25:53;4.03;;;1.48;;
49948;SDS011;35840;45.982;8.890;2023-05-02T02:28:22;2.00;;;1.70;;
49948;SDS011;35840;45.982;8.890;2023-05-02T02:30:48;4.60;;;1.90;;
49948;SDS011;35840;45.982;8.890;2023-05-02T02:33:16;5.85;;;2.15;;
49948;SDS011;35840;45.982;8.890;2023-05-02T02:35:47;2.42;;;1.42;;
49948;SDS011;35840;45.982;8.890;2023-05-02T02:38:30;2.60;;;1.95;;
49948;SDS011;35840;45.982;8.890;2023-05-02T02:41:22;4.95;;;1.70;;
49948;SDS011;35840;45.982;8.890;2023-05-02T02:44:01;1.95;;;1.70;;
49948;SDS011;35840;45.982;8.890;2023-05-02T02:46:49;1.58;;;1.45;;
49948;SDS011;35840;45.982;8.890;2023-05-02T02:52:20;2.25;;;1.50;;
49948;SDS011;35840;45.982;8.890;2023-05-02T02:54:57;1.63;;;1.52;;
49948;SDS011;35840;45.982;8.890;2023-05-02T02:57:39;3.03;;;1.55;;
49948;SDS011;35840;45.982;8.890;2023-05-02T03:00:19;1.63;;;1.52;;
49948;SDS011;35840;45.982;8.890;2023-05-02T03:02:50;2.05;;;1.50;;
49948;SDS011;35840;45.982;8.890;2023-05-02T03:05:20;4.60;;;1.73;;
49948;SDS011;35840;45.982;8.890;2023-05-02T03:07:48;4.97;;;1.88;;
49948;SDS011;35840;45.982;8.890;2023-05-02T03:10:16;1.90;;;1.50;;
49948;SDS011;35840;45.982;8.890;2023-05-02T03:12:43;2.83;;;1.67;;
49948;SDS011;35840;45.982;8.890;2023-05-02T03:17:47;2.45;;;1.77;;
49948;SDS011;35840;45.982;8.890;2023-05-02T03:20:14;4.18;;;1.60;;
49948;SDS011;35840;45.982;8.890;2023-05-02T03:22:41;2.28;;;1.60;;
49948;SDS011;35840;45.982;8.890;2023-05-02T03:25:08;5.38;;;2.05;;
49948;SDS011;35840;45.982;8.890;2023-05-02T03:27:39;3.80;;;1.58;;
49948;SDS011;35840;45.982;8.890;2023-05-02T03:30:09;1.83;;;1.40;;
49948;SDS011;35840;45.982;8.890;2023-05-02T03:32:36;3.25;;;1.70;;
49948;SDS011;35840;45.982;8.890;2023-05-02T03:35:02;2.15;;;1.95;;
49948;SDS011;35840;45.982;8.890;2023-05-02T03:37:36;2.90;;;1.60;;
49948;SDS011;35840;45.982;8.890;2023-05-02T03:40:02;2.17;;;1.85;;
49948;SDS011;35840;45.982;8.890;2023-05-02T03:42:29;5.28;;;1.65;;
49948;SDS011;35840;45.982;8.890;2023-05-02T03:44:56;3.63;;;1.65;;
49948;SDS011;35840;45.982;8.890;2023-05-02T03:47:26;4.32;;;1.85;;
49948;SDS011;35840;45.982;8.890;2023-05-02T03:49:53;4.57;;;1.77;;
49948;SDS011;35840;45.982;8.890;2023-05-02T03:52:20;4.32;;;1.90;;
49948;SDS011;35840;45.982;8.890;2023-05-02T03:54:48;4.22;;;1.63;;
49948;SDS011;35840;45.982;8.890;2023-05-02T03:57:15;2.00;;;1.60;;
49948;SDS011;35840;45.982;8.890;2023-05-02T03:59:42;2.63;;;2.10;;
49948;SDS011;35840;45.982;8.890;2023-05-02T04:02:20;7.28;;;1.65;;
49948;SDS011;35840;45.982;8.890;2023-05-02T04:04:48;3.88;;;1.90;;
49948;SDS011;35840;45.982;8.890;2023-05-02T04:07:18;4.07;;;1.70;;
49948;SDS011;35840;45.982;8.890;2023-05-02T04:09:51;6.55;;;2.10;;
49948;SDS011;35840;45.982;8.890;2023-05-02T04:12:19;6.70;;;2.25;;
49948;SDS011;35840;45.982;8.890;2023-05-02T04:14:48;2.80;;;2.00;;
49948;SDS011;35840;45.982;8.890;2023-05-02T04:17:15;6.38;;;2.55;;
49948;SDS011;35840;45.982;8.890;2023-05-02T04:19:47;4.40;;;2.17;;
49948;SDS011;35840;45.982;8.890;2023-05-02T04:22:15;2.60;;;2.13;;
49948;SDS011;35840;45.982;8.890;2023-05-02T04:24:47;2.28;;;2.08;;
49948;SDS011;35840;45.982;8.890;2023-05-02T04:27:15;3.40;;;1.88;;
49948;SDS011;35840;45.982;8.890;2023-05-02T04:29:42;6.55;;;3.35;;
49948;SDS011;35840;45.982;8.890;2023-05-02T04:32:09;4.65;;;2.78;;
49948;SDS011;35840;45.982;8.890;2023-05-02T04:34:38;4.50;;;1.90;;
49948;SDS011;35840;45.982;8.890;2023-05-02T04:37:04;2.78;;;2.17;;
49948;SDS011;35840;45.982;8.890;2023-05-02T04:39:33;4.40;;;1.83;;
49948;SDS011;35840;45.982;8.890;2023-05-02T04:42:03;4.68;;;2.05;;
49948;SDS011;35840;45.982;8.890;2023-05-02T04:44:36;2.60;;;1.88;;
49948;SDS011;35840;45.982;8.890;2023-05-02T04:47:03;3.85;;;1.80;;
49948;SDS011;35840;45.982;8.890;2023-05-02T04:49:30;2.95;;;2.38;;
49948;SDS011;35840;45.982;8.890;2023-05-02T04:51:57;4.60;;;2.17;;
49948;SDS011;35840;45.982;8.890;2023-05-02T04:54:24;2.08;;;1.88;;
49948;SDS011;35840;45.982;8.890;2023-05-02T04:56:51;4.82;;;2.10;;
49948;SDS011;35840;45.982;8.890;2023-05-02T04:59:19;4.53;;;1.77;;
49948;SDS011;35840;45.982;8.890;2023-05-02T05:01:47;4.32;;;2.58;;
49948;SDS011;35840;45.982;8.890;2023-05-02T05:04:14;2.00;;;1.80;;
49948;SDS011;35840;45.982;8.890;2023-05-02T05:06:41;3.15;;;2.17;;
49948;SDS011;35840;45.982;8.890;2023-05-02T05:09:09;2.78;;;1.63;;
49948;SDS011;35840;45.982;8.890;2023-05-02T05:11:36;3.03;;;1.85;;
49948;SDS011;35840;45.982;8.890;2023-05-02T05:14:05;1.88;;;1.67;;
49948;SDS011;35840;45.982;8.890;2023-05-02T05:16:35;1.98;;;1.67;;
49948;SDS011;35840;45.982;8.890;2023-05-02T05:19:03;2.25;;;2.05;;
49948;SDS011;35840;45.982;8.890;2023-05-02T05:21:30;2.40;;;2.08;;
49948;SDS011;35840;45.982;8.890;2023-05-02T05:23:58;3.08;;;2.20;;
49948;SDS011;35840;45.982;8.890;2023-05-02T05:26:27;3.55;;;2.40;;
49948;SDS011;35840;45.982;8.890;2023-05-02T05:28:54;3.45;;;2.65;;
49948;SDS011;35840;45.982;8.890;2023-05-02T05:31:24;2.55;;;2.35;;
49948;SDS011;35840;45.982;8.890;2023-05-02T05:33:54;3.17;;;2.65;;
49948;SDS011;35840;45.982;8.890;2023-05-02T05:36:22;3.17;;;2.85;;
49948;SDS011;35840;45.982;8.890;2023-05-02T05:38:49;2.97;;;2.60;;
49948;SDS011;35840;45.982;8.890;2023-05-02T05:41:17;4.45;;;2.67;;
49948;SDS011;35840;45.982;8.890;2023-05-02T05:43:48;3.05;;;2.53;;
49948;SDS011;35840;45.982;8.890;2023-05-02T05:46:14;4.07;;;3.42;;
49948;SDS011;35840;45.982;8.890;2023-05-02T05:48:41;3.38;;;2.97;;
49948;SDS011;35840;45.982;8.890;2023-05-02T05:51:09;5.97;;;2.97;;
49948;SDS011;35840;45.982;8.890;2023-05-02T05:53:35;4.35;;;2.70;;
49948;SDS011;35840;45.982;8.890;2023-05-02T05:56:08;4.50;;;2.88;;
49948;SDS011;35840;45.982;8.890;2023-05-02T05:58:48;4.60;;;2.70;;
49948;SDS011;35840;45.982;8.890;2023-05-02T06:01:15;2.95;;;2.65;;
49948;SDS011;35840;45.982;8.890;2023-05-02T06:03:42;3.60;;;2.30;;
49948;SDS011;35840;45.982;8.890;2023-05-02T06:06:09;3.92;;;3.05;;
49948;SDS011;35840;45.982;8.890;2023-05-02T06:08:36;3.15;;;2.60;;
49948;SDS011;35840;45.982;8.890;2023-05-02T06:11:06;2.83;;;2.33;;
49948;SDS011;35840;45.982;8.890;2023-05-02T06:13:34;3.63;;;2.35;;
49948;SDS011;35840;45.982;8.890;2023-05-02T06:16:01;2.40;;;2.10;;
49948;SDS011;35840;45.982;8.890;2023-05-02T06:18:28;4.57;;;2.28;;
49948;SDS011;35840;45.982;8.890;2023-05-02T06:20:55;4.40;;;2.33;;
49948;SDS011;35840;45.982;8.890;2023-05-02T06:23:23;3.97;;;2.40;;
49948;SDS011;35840;45.982;8.890;2023-05-02T06:25:49;2.40;;;2.20;;
49948;SDS011;35840;45.982;8.890;2023-05-02T06:28:16;2.70;;;2.35;;
49948;SDS011;35840;45.982;8.890;2023-05-02T06:30:43;2.35;;;2.13;;
49948;SDS011;35840;45.982;8.890;2023-05-02T06:33:10;3.42;;;2.80;;
49948;SDS011;35840;45.982;8.890;2023-05-02T06:35:37;3.25;;;2.40;;
49948;SDS011;35840;45.982;8.890;2023-05-02T06:38:04;3.42;;;2.40;;
49948;SDS011;35840;45.982;8.890;2023-05-02T06:40:33;2.65;;;2.17;;
49948;SDS011;35840;45.982;8.890;2023-05-02T06:43:01;3.05;;;2.08;;
49948;SDS011;35840;45.982;8.890;2023-05-02T06:45:28;2.60;;;2.40;;
49948;SDS011;35840;45.982;8.890;2023-05-02T06:47:55;5.18;;;2.65;;
49948;SDS011;35840;45.982;8.890;2023-05-02T06:50:22;2.47;;;2.28;;
49948;SDS011;35840;45.982;8.890;2023-05-02T06:52:48;2.50;;;2.30;;
49948;SDS011;35840;45.982;8.890;2023-05-02T06:55:15;6.80;;;2.88;;
49948;SDS011;35840;45.982;8.890;2023-05-02T06:57:42;3.33;;;2.50;;
49948;SDS011;35840;45.982;8.890;2023-05-02T07:00:09;1.92;;;1.83;;
49948;SDS011;35840;45.982;8.890;2023-05-02T07:02:36;2.00;;;1.80;;
49948;SDS011;35840;45.982;8.890;2023-05-02T07:05:03;3.90;;;2.10;;
49948;SDS011;35840;45.982;8.890;2023-05-02T07:07:30;6.07;;;2.75;;
49948;SDS011;35840;45.982;8.890;2023-05-02T07:09:56;3.28;;;1.75;;
49948;SDS011;35840;45.982;8.890;2023-05-02T07:12:24;2.20;;;1.77;;
49948;SDS011;35840;45.982;8.890;2023-05-02T07:14:51;2.30;;;1.73;;
49948;SDS011;35840;45.982;8.890;2023-05-02T07:17:18;3.15;;;1.80;;
49948;SDS011;35840;45.982;8.890;2023-05-02T07:19:45;1.83;;;1.73;;
49948;SDS011;35840;45.982;8.890;2023-05-02T07:22:12;4.18;;;2.15;;
49948;SDS011;35840;45.982;8.890;2023-05-02T07:24:39;2.10;;;1.90;;
49948;SDS011;35840;45.982;8.890;2023-05-02T07:27:07;3.60;;;1.95;;
49948;SDS011;35840;45.982;8.890;2023-05-02T07:29:35;3.40;;;1.85;;
49948;SDS011;35840;45.982;8.890;2023-05-02T07:32:02;2.22;;;2.03;;
49948;SDS011;35840;45.982;8.890;2023-05-02T07:34:29;2.85;;;1.98;;
49948;SDS011;35840;45.982;8.890;2023-05-02T07:36:56;2.35;;;1.55;;
49948;SDS011;35840;45.982;8.890;2023-05-02T07:39:23;2.90;;;1.70;;
49948;SDS011;35840;45.982;8.890;2023-05-02T07:41:51;2.88;;;1.58;;
49948;SDS011;35840;45.982;8.890;2023-05-02T07:44:19;2.63;;;1.50;;
49948;SDS011;35840;45.982;8.890;2023-05-02T07:46:46;1.50;;;1.40;;
49948;SDS011;35840;45.982;8.890;2023-05-02T07:49:13;1.88;;;1.63;;
49948;SDS011;35840;45.982;8.890;2023-05-02T07:51:40;2.20;;;1.40;;
49948;SDS011;35840;45.982;8.890;2023-05-02T07:54:14;1.50;;;1.40;;
49948;SDS011;35840;45.982;8.890;2023-05-02T07:56:42;3.25;;;1.40;;
49948;SDS011;35840;45.982;8.890;2023-05-02T07:59:09;1.92;;;1.10;;
49948;SDS011;35840;45.982;8.890;2023-05-02T08:01:36;1.88;;;1.65;;
49948;SDS011;35840;45.982;8.890;2023-05-02T08:04:04;1.30;;;1.20;;
49948;SDS011;35840;45.982;8.890;2023-05-02T08:06:31;1.10;;;1.00;;
49948;SDS011;35840;45.982;8.890;2023-05-02T08:08:58;1.65;;;1.02;;
49948;SDS011;35840;45.982;8.890;2023-05-02T08:11:25;1.35;;;1.25;;
49948;SDS011;35840;45.982;8.890;2023-05-02T08:13:52;1.20;;;1.10;;
49948;SDS011;35840;45.982;8.890;2023-05-02T08:16:19;2.30;;;1.30;;
49948;SDS011;35840;45.982;8.890;2023-05-02T08:18:46;1.52;;;1.35;;
49948;SDS011;35840;45.982;8.890;2023-05-02T08:21:13;2.10;;;1.30;;
49948;SDS011;35840;45.982;8.890;2023-05-02T08:23:40;1.75;;;1.40;;
49948;SDS011;35840;45.982;8.890;2023-05-02T08:26:07;1.48;;;1.23;;
49948;SDS011;35840;45.982;8.890;2023-05-02T08:28:35;2.67;;;1.10;;
49948;SDS011;35840;45.982;8.890;2023-05-02T08:31:02;3.53;;;1.00;;
49948;SDS011;35840;45.982;8.890;2023-05-02T08:33:29;3.60;;;1.20;;
49948;SDS011;35840;45.982;8.890;2023-05-02T08:35:56;1.40;;;1.05;;
49948;SDS011;35840;45.982;8.890;2023-05-02T08:38:22;1.88;;;1.30;;
49948;SDS011;35840;45.982;8.890;2023-05-02T08:40:49;1.10;;;1.00;;
49948;SDS011;35840;45.982;8.890;2023-05-02T08:43:16;2.58;;;0.90;;
49948;SDS011;35840;45.982;8.890;2023-05-02T08:45:43;2.33;;;1.08;;
49948;SDS011;35840;45.982;8.890;2023-05-02T08:48:11;1.50;;;1.20;;
49948;SDS011;35840;45.982;8.890;2023-05-02T08:50:42;4.70;;;1.17;;
49948;SDS011;35840;45.982;8.890;2023-05-02T08:53:12;0.80;;;0.80;;
49948;SDS011;35840;45.982;8.890;2023-05-02T08:55:42;1.88;;;1.20;;
49948;SDS011;35840;45.982;8.890;2023-05-02T08:58:09;1.52;;;1.42;;
49948;SDS011;35840;45.982;8.890;2023-05-02T09:00:37;3.70;;;1.38;;
49948;SDS011;35840;45.982;8.890;2023-05-02T09:06:00;0.93;;;0.88;;
49948;SDS011;35840;45.982;8.890;2023-05-02T09:08:35;1.83;;;0.90;;
49948;SDS011;35840;45.982;8.890;2023-05-02T09:11:03;1.65;;;0.90;;
49948;SDS011;35840;45.982;8.890;2023-05-02T09:18:32;0.98;;;0.88;;
49948;SDS011;35840;45.982;8.890;2023-05-02T09:21:03;0.80;;;0.80;;
49948;SDS011;35840;45.982;8.890;2023-05-02T09:23:35;3.00;;;1.00;;
49948;SDS011;35840;45.982;8.890;2023-05-02T09:26:22;2.55;;;1.13;;
49948;SDS011;35840;45.982;8.890;2023-05-02T09:28:56;1.60;;;1.05;;
49948;SDS011;35840;45.982;8.890;2023-05-02T09:31:25;1.27;;;1.10;;
49948;SDS011;35840;45.982;8.890;2023-05-02T09:34:14;0.88;;;0.88;;
49948;SDS011;35840;45.982;8.890;2023-05-02T09:36:46;1.55;;;1.20;;
49948;SDS011;35840;45.982;8.890;2023-05-02T09:39:16;1.25;;;0.70;;
49948;SDS011;35840;45.982;8.890;2023-05-02T09:41:48;1.55;;;0.98;;
49948;SDS011;35840;45.982;8.890;2023-05-02T09:44:18;2.65;;;1.20;;
49948;SDS011;35840;45.982;8.890;2023-05-02T09:46:48;4.15;;;1.20;;
49948;SDS011;35840;45.982;8.890;2023-05-02T09:49:15;2.20;;;1.10;;
49948;SDS011;35840;45.982;8.890;2023-05-02T09:51:45;1.00;;;0.90;;
49948;SDS011;35840;45.982;8.890;2023-05-02T09:54:13;1.02;;;0.77;;
49948;SDS011;35840;45.982;8.890;2023-05-02T09:57:03;0.80;;;0.80;;
49948;SDS011;35840;45.982;8.890;2023-05-02T09:59:32;1.58;;;1.08;;
49948;SDS011;35840;45.982;8.890;2023-05-02T10:02:00;2.65;;;0.93;;
49948;SDS011;35840;45.982;8.890;2023-05-02T10:04:29;1.95;;;1.40;;
49948;SDS011;35840;45.982;8.890;2023-05-02T10:06:58;1.10;;;0.95;;
49948;SDS011;35840;45.982;8.890;2023-05-02T10:09:26;1.50;;;1.05;;
49948;SDS011;35840;45.982;8.890;2023-05-02T10:11:59;1.20;;;1.00;;
49948;SDS011;35840;45.982;8.890;2023-05-02T10:14:34;2.90;;;1.20;;
49948;SDS011;35840;45.982;8.890;2023-05-02T10:17:13;2.97;;;0.93;;
49948;SDS011;35840;45.982;8.890;2023-05-02T10:19:59;0.90;;;0.90;;
49948;SDS011;35840;45.982;8.890;2023-05-02T10:22:31;1.50;;;1.05;;
49948;SDS011;35840;45.982;8.890;2023-05-02T10:24:59;2.85;;;1.13;;
49948;SDS011;35840;45.982;8.890;2023-05-02T10:27:28;1.42;;;0.90;;
49948;SDS011;35840;45.982;8.890;2023-05-02T10:29:57;2.65;;;1.10;;
49948;SDS011;35840;45.982;8.890;2023-05-02T10:32:28;1.73;;;1.15;;
49948;SDS011;35840;45.982;8.890;2023-05-02T10:35:02;1.75;;;1.40;;
49948;SDS011;35840;45.982;8.890;2023-05-02T10:37:30;1.02;;;0.93;;
49948;SDS011;35840;45.982;8.890;2023-05-02T10:40:01;1.42;;;1.10;;
49948;SDS011;35840;45.982;8.890;2023-05-02T10:42:29;2.85;;;1.10;;
49948;SDS011;35840;45.982;8.890;2023-05-02T10:44:57;4.25;;;1.30;;
49948;SDS011;35840;45.982;8.890;2023-05-02T10:47:26;1.17;;;0.90;;
49948;SDS011;35840;45.982;8.890;2023-05-02T10:49:56;1.50;;;1.00;;
49948;SDS011;35840;45.982;8.890;2023-05-02T10:52:32;2.10;;;1.20;;
49948;SDS011;35840;45.982;8.890;2023-05-02T11:00:29;0.88;;;0.70;;
49948;SDS011;35840;45.982;8.890;2023-05-02T11:02:58;2.00;;;1.10;;
49948;SDS011;35840;45.982;8.890;2023-05-02T11:05:26;0.55;;;0.55;;
49948;SDS011;35840;45.982;8.890;2023-05-02T11:10:46;1.38;;;1.10;;
49948;SDS011;35840;45.982;8.890;2023-05-02T11:13:13;1.90;;;0.90;;
49948;SDS011;35840;45.982;8.890;2023-05-02T11:20:43;2.28;;;0.75;;
49948;SDS011;35840;45.982;8.890;2023-05-02T11:25:56;0.98;;;0.82;;
49948;SDS011;35840;45.982;8.890;2023-05-02T11:33:57;0.90;;;0.73;;
49948;SDS011;35840;45.982;8.890;2023-05-02T11:36:28;0.70;;;0.70;;
49948;SDS011;35840;45.982;8.890;2023-05-02T11:39:02;1.02;;;0.80;;
49948;SDS011;35840;45.982;8.890;2023-05-02T11:41:40;2.75;;;1.40;;
49948;SDS011;35840;45.982;8.890;2023-05-02T11:44:08;2.60;;;0.90;;
49948;SDS011;35840;45.982;8.890;2023-05-02T11:46:35;2.15;;;1.25;;
49948;SDS011;35840;45.982;8.890;2023-05-02T11:49:04;0.70;;;0.70;;
49948;SDS011;35840;45.982;8.890;2023-05-02T11:51:34;1.08;;;0.80;;
49948;SDS011;35840;45.982;8.890;2023-05-02T11:54:01;0.70;;;0.70;;
49948;SDS011;35840;45.982;8.890;2023-05-02T11:56:29;1.90;;;0.77;;
49948;SDS011;35840;45.982;8.890;2023-05-02T11:59:02;0.80;;;0.77;;
49948;SDS011;35840;45.982;8.890;2023-05-02T12:01:29;0.90;;;0.85;;
49948;SDS011;35840;45.982;8.890;2023-05-02T12:04:06;0.77;;;0.60;;
49948;SDS011;35840;45.982;8.890;2023-05-02T12:06:33;2.83;;;0.93;;
49948;SDS011;35840;45.982;8.890;2023-05-02T12:09:07;0.77;;;0.63;;
49948;SDS011;35840;45.982;8.890;2023-05-02T12:11:36;6.85;;;1.08;;
49948;SDS011;35840;45.982;8.890;2023-05-02T12:14:04;0.60;;;0.60;;
49948;SDS011;35840;45.982;8.890;2023-05-02T12:16:32;1.95;;;0.88;;
49948;SDS011;35840;45.982;8.890;2023-05-02T12:18:59;0.75;;;0.75;;
49948;SDS011;35840;45.982;8.890;2023-05-02T12:21:27;2.38;;;0.90;;
49948;SDS011;35840;45.982;8.890;2023-05-02T12:24:01;1.13;;;0.80;;
49948;SDS011;35840;45.982;8.890;2023-05-02T12:26:28;3.22;;;0.95;;
49948;SDS011;35840;45.982;8.890;2023-05-02T12:28:57;2.60;;;0.70;;
49948;SDS011;35840;45.982;8.890;2023-05-02T12:31:24;4.43;;;0.70;;
49948;SDS011;35840;45.982;8.890;2023-05-02T12:33:53;0.50;;;0.50;;
49948;SDS011;35840;45.982;8.890;2023-05-02T12:36:23;2.67;;;1.17;;
49948;SDS011;35840;45.982;8.890;2023-05-02T12:38:50;1.27;;;0.73;;
49948;SDS011;35840;45.982;8.890;2023-05-02T12:41:36;3.58;;;0.93;;
49948;SDS011;35840;45.982;8.890;2023-05-02T12:44:04;0.75;;;0.75;;
49948;SDS011;35840;45.982;8.890;2023-05-02T12:46:33;1.58;;;0.88;;
49948;SDS011;35840;45.982;8.890;2023-05-02T12:49:00;1.50;;;0.80;;
49948;SDS011;35840;45.982;8.890;2023-05-02T12:51:35;0.68;;;0.68;;
49948;SDS011;35840;45.982;8.890;2023-05-02T12:54:02;0.70;;;0.70;;
49948;SDS011;35840;45.982;8.890;2023-05-02T12:56:37;2.47;;;1.00;;
49948;SDS011;35840;45.982;8.890;2023-05-02T12:59:04;3.33;;;0.90;;
49948;SDS011;35840;45.982;8.890;2023-05-02T13:01:33;1.23;;;1.00;;
49948;SDS011;35840;45.982;8.890;2023-05-02T13:04:01;2.70;;;1.33;;
49948;SDS011;35840;45.982;8.890;2023-05-02T13:06:28;1.48;;;1.00;;
49948;SDS011;35840;45.982;8.890;2023-05-02T13:08:55;1.15;;;0.80;;
49948;SDS011;35840;45.982;8.890;2023-05-02T13:11:22;0.88;;;0.88;;
49948;SDS011;35840;45.982;8.890;2023-05-02T13:13:49;0.93;;;0.82;;
49948;SDS011;35840;45.982;8.890;2023-05-02T13:16:16;0.90;;;0.90;;
49948;SDS011;35840;45.982;8.890;2023-05-02T13:18:43;1.02;;;0.98;;
49948;SDS011;35840;45.982;8.890;2023-05-02T13:21:13;1.13;;;0.80;;
49948;SDS011;35840;45.982;8.890;2023-05-02T13:23:39;0.93;;;0.85;;
49948;SDS011;35840;45.982;8.890;2023-05-02T13:26:06;0.70;;;0.70;;
49948;SDS011;35840;45.982;8.890;2023-05-02T13:28:33;1.50;;;0.90;;
49948;SDS011;35840;45.982;8.890;2023-05-02T13:31:00;3.17;;;1.40;;
49948;SDS011;35840;45.982;8.890;2023-05-02T13:33:27;0.90;;;0.90;;
49948;SDS011;35840;45.982;8.890;2023-05-02T13:35:54;1.17;;;0.80;;
49948;SDS011;35840;45.982;8.890;2023-05-02T13:38:21;1.38;;;1.02;;
49948;SDS011;35840;45.982;8.890;2023-05-02T13:40:48;0.80;;;0.80;;
49948;SDS011;35840;45.982;8.890;2023-05-02T13:43:15;0.77;;;0.70;;
49948;SDS011;35840;45.982;8.890;2023-05-02T13:45:42;0.98;;;0.88;;
49948;SDS011;35840;45.982;8.890;2023-05-02T13:48:08;1.90;;;0.57;;
49948;SDS011;35840;45.982;8.890;2023-05-02T13:50:35;1.70;;;0.73;;
49948;SDS011;35840;45.982;8.890;2023-05-02T13:53:03;1.27;;;0.90;;
49948;SDS011;35840;45.982;8.890;2023-05-02T13:55:30;0.73;;;0.73;;
49948;SDS011;35840;45.982;8.890;2023-05-02T13:57:57;0.70;;;0.63;;
49948;SDS011;35840;45.982;8.890;2023-05-02T14:00:23;1.50;;;0.90;;
49948;SDS011;35840;45.982;8.890;2023-05-02T14:02:51;0.95;;;0.95;;
49948;SDS011;35840;45.982;8.890;2023-05-02T14:05:18;0.68;;;0.68;;
49948;SDS011;35840;45.982;8.890;2023-05-02T14:07:45;0.70;;;0.40;;
49948;SDS011;35840;45.982;8.890;2023-05-02T14:10:12;2.05;;;0.68;;
49948;SDS011;35840;45.982;8.890;2023-05-02T14:12:38;0.50;;;0.50;;
49948;SDS011;35840;45.982;8.890;2023-05-02T14:15:05;1.10;;;0.70;;
49948;SDS011;35840;45.982;8.890;2023-05-02T14:17:33;1.58;;;0.50;;
49948;SDS011;35840;45.982;8.890;2023-05-02T14:19:59;3.15;;;0.80;;
49948;SDS011;35840;45.982;8.890;2023-05-02T14:22:27;0.52;;;0.50;;
49948;SDS011;35840;45.982;8.890;2023-05-02T14:24:53;0.63;;;0.63;;
49948;SDS011;35840;45.982;8.890;2023-05-02T14:27:20;1.27;;;0.90;;
49948;SDS011;35840;45.982;8.890;2023-05-02T14:29:47;0.50;;;0.50;;
49948;SDS011;35840;45.982;8.890;2023-05-02T14:32:13;0.95;;;0.40;;
49948;SDS011;35840;45.982;8.890;2023-05-02T14:34:40;0.90;;;0.70;;
49948;SDS011;35840;45.982;8.890;2023-05-02T14:37:07;0.60;;;0.60;;
49948;SDS011;35840;45.982;8.890;2023-05-02T14:39:37;0.52;;;0.52;;
49948;SDS011;35840;45.982;8.890;2023-05-02T14:42:05;1.60;;;0.80;;
49948;SDS011;35840;45.982;8.890;2023-05-02T14:44:32;2.33;;;0.70;;
49948;SDS011;35840;45.982;8.890;2023-05-02T14:46:58;0.70;;;0.50;;
49948;SDS011;35840;45.982;8.890;2023-05-02T14:49:25;1.05;;;0.63;;
49948;SDS011;35840;45.982;8.890;2023-05-02T14:51:52;0.60;;;0.60;;
49948;SDS011;35840;45.982;8.890;2023-05-02T14:54:26;0.40;;;0.40;;
49948;SDS011;35840;45.982;8.890;2023-05-02T14:56:54;0.40;;;0.40;;
49948;SDS011;35840;45.982;8.890;2023-05-02T14:59:22;0.82;;;0.70;;
49948;SDS011;35840;45.982;8.890;2023-05-02T15:01:50;2.60;;;0.30;;
49948;SDS011;35840;45.982;8.890;2023-05-02T15:04:17;0.77;;;0.45;;
49948;SDS011;35840;45.982;8.890;2023-05-02T15:06:45;1.02;;;0.68;;
49948;SDS011;35840;45.982;8.890;2023-05-02T15:09:13;1.83;;;0.60;;
49948;SDS011;35840;45.982;8.890;2023-05-02T15:11:41;2.42;;;0.50;;
49948;SDS011;35840;45.982;8.890;2023-05-02T15:14:10;0.70;;;0.52;;
49948;SDS011;35840;45.982;8.890;2023-05-02T15:16:36;0.63;;;0.50;;
49948;SDS011;35840;45.982;8.890;2023-05-02T15:19:05;2.03;;;0.57;;
49948;SDS011;35840;45.982;8.890;2023-05-02T15:21:31;0.57;;;0.43;;
49948;SDS011;35840;45.982;8.890;2023-05-02T15:23:58;1.50;;;0.60;;
49948;SDS011;35840;45.982;8.890;2023-05-02T15:26:25;1.15;;;0.52;;
49948;SDS011;35840;45.982;8.890;2023-05-02T15:28:52;0.93;;;0.50;;
49948;SDS011;35840;45.982;8.890;2023-05-02T15:31:19;0.40;;;0.40;;
49948;SDS011;35840;45.982;8.890;2023-05-02T15:33:46;0.47;;;0.47;;
49948;SDS011;35840;45.982;8.890;2023-05-02T15:36:12;1.20;;;0.70;;
49948;SDS011;35840;45.982;8.890;2023-05-02T15:38:39;2.33;;;0.40;;
49948;SDS011;35840;45.982;8.890;2023-05-02T15:41:08;0.93;;;0.60;;
49948;SDS011;35840;45.982;8.890;2023-05-02T15:43:39;0.45;;;0.45;;